createdAt,value
2022-10-22T00:02:00.706Z,15.54
2022-10-22T00:04:03.687Z,15.53
2022-10-22T00:06:06.981Z,15.56
2022-10-22T00:08:09.828Z,15.56
2022-10-22T00:10:13.133Z,15.51
2022-10-22T00:12:17.031Z,15.53
2022-10-22T00:14:20.727Z,15.54
2022-10-22T00:16:23.735Z,15.65
2022-10-22T00:18:28.030Z,15.69
2022-10-22T00:20:30.998Z,15.73
2022-10-22T00:22:34.034Z,15.67
2022-10-22T00:24:38.315Z,15.75
2022-10-22T00:26:41.270Z,15.79
2022-10-22T00:28:44.219Z,15.82
2022-10-22T00:30:46.559Z,15.84
2022-10-22T00:32:52.832Z,15.88
2022-10-22T00:34:57.212Z,15.88
2022-10-22T00:37:00.185Z,15.86
2022-10-22T00:39:03.111Z,15.87
2022-10-22T00:41:06.222Z,15.87
2022-10-22T00:43:11.635Z,15.90
2022-10-22T00:45:20.992Z,15.87
2022-10-22T00:47:24.303Z,15.83
2022-10-22T00:49:27.281Z,15.85
2022-10-22T00:51:33.878Z,15.83
2022-10-22T00:53:39.279Z,15.85
2022-10-22T00:55:43.064Z,15.88
2022-10-22T00:57:46.553Z,15.87
2022-10-22T00:59:52.215Z,15.92
2022-10-22T01:01:55.367Z,15.95
2022-10-22T01:03:58.434Z,15.94
2022-10-22T01:06:02.974Z,15.97
2022-10-22T01:08:08.885Z,15.96
2022-10-22T01:10:20.327Z,15.90
2022-10-22T01:12:29.727Z,15.88
2022-10-22T01:14:39.894Z,15.92
2022-10-22T01:16:48.097Z,15.92
2022-10-22T01:18:58.053Z,15.80
2022-10-22T01:21:08.957Z,15.86
2022-10-22T01:23:23.532Z,15.92
2022-10-22T01:25:32.927Z,15.92
2022-10-22T01:27:47.247Z,15.89
2022-10-22T01:29:53.914Z,15.87
2022-10-22T01:32:00.322Z,15.86
2022-10-22T01:34:04.353Z,15.84
2022-10-22T01:36:08.222Z,15.84
2022-10-22T01:38:14.509Z,15.79
2022-10-22T01:40:18.154Z,15.85
2022-10-22T01:42:21.099Z,15.85
2022-10-22T01:44:28.854Z,15.83
2022-10-22T01:46:33.761Z,15.85
2022-10-22T01:48:42.681Z,15.81
2022-10-22T01:50:57.629Z,15.80
2022-10-22T01:53:12.815Z,15.82
2022-10-22T01:55:23.030Z,15.82
2022-10-22T01:57:32.690Z,15.82
2022-10-22T01:59:43.513Z,15.82
2022-10-22T02:01:55.801Z,15.77
2022-10-22T02:04:02.769Z,15.78
2022-10-22T02:06:09.888Z,15.77
2022-10-22T02:08:15.959Z,15.68
2022-10-22T02:10:19.730Z,15.72
2022-10-22T02:12:23.295Z,15.72
2022-10-22T02:14:26.832Z,15.74
2022-10-22T02:16:35.096Z,15.75
2022-10-22T02:18:41.850Z,15.74
2022-10-22T02:20:44.818Z,15.69
2022-10-22T02:22:48.165Z,15.59
2022-10-22T02:24:51.304Z,15.58
2022-10-22T02:26:59.141Z,15.48
2022-10-22T02:29:06.642Z,15.46
2022-10-22T02:31:14.664Z,15.47
2022-10-22T02:33:19.650Z,15.40
2022-10-22T02:35:25.941Z,15.38
2022-10-22T02:37:28.959Z,15.34
2022-10-22T02:39:32.734Z,15.33
2022-10-22T02:41:35.905Z,15.34
2022-10-22T02:43:42.867Z,15.28
2022-10-22T02:45:45.846Z,15.23
2022-10-22T02:47:48.798Z,15.21
2022-10-22T02:49:51.652Z,15.19
2022-10-22T02:51:55.925Z,15.16
2022-10-22T02:53:59.187Z,15.11
2022-10-22T02:56:02.131Z,15.07
2022-10-22T02:58:05.086Z,15.03
2022-10-22T03:00:10.244Z,14.96
2022-10-22T03:02:13.193Z,14.89
2022-10-22T03:04:17.008Z,14.79
2022-10-22T03:06:19.993Z,14.74
2022-10-22T03:08:24.656Z,14.81
2022-10-22T03:10:27.495Z,14.74
2022-10-22T03:12:30.528Z,14.71
2022-10-22T03:14:33.443Z,14.72
2022-10-22T03:16:36.329Z,14.62
2022-10-22T03:18:39.299Z,14.58
2022-10-22T03:20:42.208Z,14.57
2022-10-22T03:22:45.516Z,14.54
2022-10-22T03:24:52.679Z,14.43
2022-10-22T03:26:56.206Z,14.33
2022-10-22T03:29:00.859Z,14.33
2022-10-22T03:31:04.010Z,14.39
2022-10-22T03:33:06.910Z,14.33
2022-10-22T03:35:10.151Z,14.42
2022-10-22T03:37:13.266Z,14.39
2022-10-22T03:39:17.476Z,14.32
2022-10-22T03:41:21.807Z,14.29
2022-10-22T03:43:24.773Z,14.25
2022-10-22T03:45:27.754Z,14.23
2022-10-22T03:47:30.827Z,14.15
2022-10-22T03:49:34.037Z,14.33
2022-10-22T03:51:36.982Z,14.30
2022-10-22T03:53:39.966Z,14.23
2022-10-22T03:55:42.902Z,14.23
2022-10-22T03:57:47.182Z,14.23
2022-10-22T03:59:50.957Z,14.13
2022-10-22T04:01:53.943Z,14.23
2022-10-22T04:03:57.732Z,14.25
2022-10-22T04:06:05.678Z,14.25
2022-10-22T04:08:08.589Z,14.27
2022-10-22T04:10:11.485Z,14.27
2022-10-22T04:12:14.406Z,14.20
2022-10-22T04:14:18.789Z,14.25
2022-10-22T04:16:25.116Z,14.32
2022-10-22T04:18:30.440Z,14.34
2022-10-22T04:20:33.314Z,14.40
2022-10-22T04:22:36.462Z,14.43
2022-10-22T04:24:39.657Z,14.47
2022-10-22T04:26:42.772Z,14.47
2022-10-22T04:28:46.448Z,14.54
2022-10-22T04:30:50.720Z,14.62
2022-10-22T04:32:53.660Z,14.63
2022-10-22T04:34:56.633Z,14.67
2022-10-22T04:36:59.725Z,14.70
2022-10-22T04:39:03.217Z,14.76
2022-10-22T04:41:14.228Z,14.77
2022-10-22T04:43:17.051Z,14.79
2022-10-22T04:45:19.937Z,14.82
2022-10-22T04:47:24.275Z,14.89
2022-10-22T04:49:27.367Z,14.92
2022-10-22T04:51:30.317Z,14.96
2022-10-22T04:53:33.493Z,14.96
2022-10-22T04:55:36.393Z,15.00
2022-10-22T04:57:39.623Z,15.03
2022-10-22T04:59:42.664Z,15.04
2022-10-22T05:01:46.344Z,15.02
2022-10-22T05:03:52.346Z,15.01
2022-10-22T05:05:55.229Z,14.94
2022-10-22T05:07:58.130Z,14.98
2022-10-22T05:10:09.678Z,14.94
2022-10-22T05:12:12.762Z,14.95
2022-10-22T05:14:17.176Z,14.91
2022-10-22T05:16:20.065Z,14.88
2022-10-22T05:18:23.025Z,14.89
2022-10-22T05:20:27.313Z,14.86
2022-10-22T05:22:30.391Z,14.92
2022-10-22T05:24:36.753Z,14.95
2022-10-22T05:26:39.670Z,14.98
2022-10-22T05:28:43.039Z,15.00
2022-10-22T05:30:54.195Z,15.07
2022-10-22T05:32:57.035Z,15.08
2022-10-22T05:34:59.919Z,15.07
2022-10-22T05:37:06.807Z,15.13
2022-10-22T05:39:10.026Z,15.16
2022-10-22T05:41:14.841Z,15.19
2022-10-22T05:43:17.711Z,15.25
2022-10-22T05:45:20.624Z,15.24
2022-10-22T05:47:23.546Z,15.31
2022-10-22T05:49:26.425Z,15.26
2022-10-22T05:51:31.090Z,15.30
2022-10-22T05:53:40.391Z,15.30
2022-10-22T05:55:43.325Z,15.35
2022-10-22T05:57:50.166Z,15.28
2022-10-22T05:59:53.041Z,15.35
2022-10-22T06:01:56.027Z,15.34
2022-10-22T06:04:00.317Z,15.33
2022-10-22T06:06:06.004Z,15.33
2022-10-22T06:08:14.428Z,15.35
2022-10-22T06:10:21.965Z,15.37
2022-10-22T06:12:24.888Z,15.41
2022-10-22T06:14:28.451Z,15.37
2022-10-22T06:16:31.694Z,15.40
2022-10-22T06:18:34.603Z,15.40
2022-10-22T06:20:37.596Z,15.38
2022-10-22T06:22:40.809Z,15.46
2022-10-22T06:24:45.146Z,15.43
2022-10-22T06:26:52.526Z,15.40
2022-10-22T06:28:55.983Z,15.44
2022-10-22T06:30:59.809Z,15.46
2022-10-22T06:33:02.672Z,15.44
2022-10-22T06:35:06.209Z,15.43
2022-10-22T06:37:10.677Z,15.42
2022-10-22T06:39:17.083Z,15.40
2022-10-22T06:41:21.337Z,15.37
2022-10-22T06:43:27.268Z,15.46
2022-10-22T06:45:30.194Z,15.47
2022-10-22T06:47:33.416Z,15.54
2022-10-22T06:49:36.346Z,15.61
2022-10-22T06:51:39.284Z,15.77
2022-10-22T06:53:42.359Z,15.81
2022-10-22T06:55:45.258Z,15.91
2022-10-22T06:57:48.156Z,15.91
2022-10-22T06:59:52.377Z,15.95
2022-10-22T07:01:55.254Z,15.99
2022-10-22T07:03:58.506Z,15.98
2022-10-22T07:06:01.997Z,15.94
2022-10-22T07:08:05.203Z,16.05
2022-10-22T07:10:09.545Z,16.13
2022-10-22T07:12:12.522Z,16.11
2022-10-22T07:14:16.223Z,16.21
2022-10-22T07:16:20.498Z,16.31
2022-10-22T07:18:23.554Z,16.27
2022-10-22T07:20:26.486Z,16.46
2022-10-22T07:22:30.622Z,16.45
2022-10-22T07:24:33.582Z,16.72
2022-10-22T07:26:37.003Z,16.91
2022-10-22T07:28:41.103Z,17.15
2022-10-22T07:30:44.053Z,17.30
2022-10-22T07:32:48.360Z,17.40
2022-10-22T07:34:51.301Z,17.62
2022-10-22T07:36:57.898Z,17.85
2022-10-22T07:39:01.350Z,18.04
2022-10-22T07:41:04.602Z,17.84
2022-10-22T07:43:08.628Z,17.91
2022-10-22T07:45:11.803Z,18.02
2022-10-22T07:47:14.730Z,17.85
2022-10-22T07:49:19.028Z,17.90
2022-10-22T07:51:22.016Z,17.73
2022-10-22T07:53:25.261Z,17.73
2022-10-22T07:55:28.250Z,17.69
2022-10-22T07:57:31.902Z,17.54
2022-10-22T07:59:35.239Z,17.54
2022-10-22T08:01:38.299Z,17.65
2022-10-22T08:03:41.185Z,17.64
2022-10-22T08:05:45.677Z,18.01
2022-10-22T08:07:48.596Z,18.04
2022-10-22T08:09:51.478Z,18.16
2022-10-22T08:11:54.761Z,18.41
2022-10-22T08:13:57.750Z,18.47
2022-10-22T08:16:01.424Z,18.51
2022-10-22T08:18:04.506Z,18.98
2022-10-22T08:20:08.453Z,19.12
2022-10-22T08:22:13.186Z,18.99
2022-10-22T08:24:16.072Z,18.94
2022-10-22T08:26:19.064Z,19.14
2022-10-22T08:28:22.424Z,19.19
2022-10-22T08:30:27.710Z,19.24
2022-10-22T08:32:30.654Z,19.08
2022-10-22T08:34:33.638Z,18.92
2022-10-22T08:36:36.754Z,19.15
2022-10-22T08:38:41.069Z,19.10
2022-10-22T08:40:44.113Z,19.01
2022-10-22T08:43:18.378Z,18.87
2022-10-22T08:45:24.244Z,18.75
2022-10-22T08:47:49.324Z,19.04
2022-10-22T08:49:54.710Z,18.73
2022-10-22T08:51:58.830Z,18.75
2022-10-22T08:54:17.816Z,18.77
2022-10-22T08:56:23.279Z,18.73
2022-10-22T08:58:32.559Z,18.65
2022-10-22T09:00:38.776Z,18.50
2022-10-22T09:02:47.783Z,18.38
2022-10-22T09:04:55.097Z,18.44
2022-10-22T09:07:00.107Z,18.56
2022-10-22T09:09:06.545Z,18.38
2022-10-22T09:11:17.672Z,18.48
2022-10-22T09:13:22.437Z,18.34
2022-10-22T09:15:25.564Z,18.35
2022-10-22T09:17:35.447Z,18.17
2022-10-22T09:19:44.114Z,18.14
2022-10-22T09:21:54.365Z,18.03
2022-10-22T09:24:04.586Z,18.00
2022-10-22T09:26:15.627Z,17.93
2022-10-22T09:28:18.876Z,17.81
2022-10-22T09:30:23.490Z,17.83
2022-10-22T09:32:26.573Z,17.78
2022-10-22T09:34:29.912Z,17.72
2022-10-22T09:36:33.161Z,17.69
2022-10-22T09:38:41.264Z,17.70
2022-10-22T09:40:45.720Z,17.69
2022-10-22T09:42:50.330Z,17.46
2022-10-22T09:44:57.885Z,17.28
2022-10-22T09:47:00.817Z,17.18
2022-10-22T09:49:07.338Z,17.18
2022-10-22T09:51:15.506Z,17.30
2022-10-22T09:53:21.016Z,17.34
2022-10-22T09:55:26.151Z,17.41
2022-10-22T09:57:30.117Z,17.44
2022-10-22T09:59:38.442Z,17.45
2022-10-22T10:01:41.914Z,17.54
2022-10-22T10:03:45.569Z,17.62
2022-10-22T10:05:49.918Z,17.83
2022-10-22T10:07:52.848Z,17.70
2022-10-22T10:09:56.890Z,17.85
2022-10-22T10:12:08.070Z,18.07
2022-10-22T10:14:17.206Z,18.00
2022-10-22T10:16:35.623Z,18.00
2022-10-22T10:18:48.857Z,18.06
2022-10-22T10:20:56.865Z,18.04
2022-10-22T10:23:03.826Z,18.10
2022-10-22T10:25:48.961Z,18.03
2022-10-22T10:27:58.129Z,17.82
2022-10-22T10:30:07.178Z,17.76
2022-10-22T10:32:26.212Z,17.75
2022-10-22T10:34:39.701Z,17.71
2022-10-22T10:36:50.214Z,17.58
2022-10-22T10:38:58.892Z,17.71
2022-10-22T10:41:12.713Z,17.63
2022-10-22T10:43:19.812Z,17.62
2022-10-22T10:45:26.704Z,17.61
2022-10-22T10:47:47.640Z,17.45
2022-10-22T10:49:53.623Z,17.50
2022-10-22T10:52:02.108Z,17.39
2022-10-22T10:54:16.799Z,17.35
2022-10-22T10:56:39.089Z,17.40
2022-10-22T10:58:49.117Z,17.41
2022-10-22T11:00:56.722Z,17.48
2022-10-22T11:03:35.498Z,17.40
2022-10-22T11:05:41.493Z,17.44
2022-10-22T11:07:49.886Z,17.51
2022-10-22T11:09:58.868Z,17.38
2022-10-22T11:12:04.342Z,17.45
2022-10-22T11:14:14.675Z,17.35
2022-10-22T11:16:22.431Z,17.37
2022-10-22T11:18:30.636Z,17.42
2022-10-22T11:20:40.653Z,17.44
2022-10-22T11:23:13.541Z,17.32
2022-10-22T11:25:17.137Z,17.34
2022-10-22T11:27:24.078Z,17.53
2022-10-22T11:29:36.507Z,17.56
2022-10-22T11:31:41.316Z,17.55
2022-10-22T11:33:50.166Z,17.56
2022-10-22T11:35:54.658Z,17.65
2022-10-22T11:37:58.421Z,17.68
2022-10-22T11:40:05.125Z,17.77
2022-10-22T11:42:13.305Z,17.74
2022-10-22T11:44:25.801Z,17.83
2022-10-22T11:46:41.938Z,17.74
2022-10-22T11:48:46.357Z,17.77
2022-10-22T11:50:54.972Z,17.79
2022-10-22T11:53:03.696Z,17.79
2022-10-22T11:55:45.941Z,17.86
2022-10-22T11:57:49.300Z,17.85
2022-10-22T11:59:54.415Z,17.89
2022-10-22T12:01:57.652Z,17.84
2022-10-22T12:04:23.359Z,17.84
2022-10-22T12:06:27.083Z,17.87
2022-10-22T12:08:30.264Z,17.84
2022-10-22T12:10:36.887Z,17.87
2022-10-22T12:12:40.922Z,17.91
2022-10-22T12:14:55.761Z,18.01
2022-10-22T12:17:04.616Z,18.01
2022-10-22T12:19:14.339Z,18.05
2022-10-22T12:21:19.204Z,18.16
2022-10-22T12:23:27.826Z,18.12
2022-10-22T12:25:35.774Z,18.12
2022-10-22T12:27:43.206Z,18.16
2022-10-22T12:29:46.359Z,18.16
2022-10-22T12:31:49.896Z,18.31
2022-10-22T12:33:57.835Z,18.21
2022-10-22T12:36:04.095Z,18.26
2022-10-22T12:38:16.282Z,18.16
2022-10-22T12:40:21.319Z,18.20
2022-10-22T12:42:24.248Z,18.14
2022-10-22T12:44:27.185Z,18.19
2022-10-22T12:46:32.279Z,17.97
2022-10-22T12:48:40.053Z,17.92
2022-10-22T12:50:44.895Z,18.04
2022-10-22T12:52:48.750Z,18.02
2022-10-22T12:54:54.796Z,18.10
2022-10-22T12:56:58.763Z,18.04
2022-10-22T12:59:03.458Z,18.07
2022-10-22T13:01:12.253Z,18.00
2022-10-22T13:03:27.459Z,17.91
2022-10-22T13:05:39.105Z,17.85
2022-10-22T13:07:43.882Z,17.87
2022-10-22T13:09:50.348Z,17.87
2022-10-22T13:11:58.174Z,17.96
2022-10-22T13:14:05.611Z,17.86
2022-10-22T13:16:17.744Z,17.83
2022-10-22T13:18:22.672Z,17.93
2022-10-22T13:20:25.575Z,17.87
2022-10-22T13:22:35.999Z,17.90
2022-10-22T13:24:50.011Z,18.04
2022-10-22T13:26:55.726Z,17.91
2022-10-22T13:29:01.377Z,17.86
2022-10-22T13:31:16.534Z,17.91
2022-10-22T13:33:23.887Z,17.81
2022-10-22T13:35:28.266Z,17.78
2022-10-22T13:37:32.953Z,17.89
2022-10-22T13:39:37.036Z,18.02
2022-10-22T13:43:44.793Z,18.04
2022-10-22T13:45:49.297Z,17.97
2022-10-22T13:47:53.567Z,17.93
2022-10-22T13:49:58.571Z,17.92
2022-10-22T13:52:01.695Z,17.87
2022-10-22T13:54:05.674Z,17.90
2022-10-22T13:56:10.845Z,17.90
2022-10-22T14:00:27.499Z,17.91
2022-10-22T14:02:30.471Z,17.83
2022-10-22T14:04:34.568Z,17.82
2022-10-22T14:06:37.643Z,17.90
2022-10-22T14:08:40.707Z,17.93
2022-10-22T14:10:43.855Z,17.92
2022-10-22T14:12:52.298Z,17.90
2022-10-22T14:17:01.741Z,17.85
2022-10-22T14:19:05.212Z,17.79
2022-10-22T14:21:08.457Z,17.82
2022-10-22T14:25:26.107Z,17.63
2022-10-22T14:27:29.046Z,17.66
2022-10-22T14:29:33.071Z,17.67
2022-10-22T14:31:36.426Z,17.75
2022-10-22T14:33:41.143Z,17.74
2022-10-22T14:35:44.280Z,17.64
2022-10-22T14:37:47.394Z,17.67
2022-10-22T14:39:59.592Z,17.56
2022-10-22T14:42:02.572Z,17.64
2022-10-22T14:44:05.762Z,17.58
2022-10-22T14:46:09.728Z,17.65
2022-10-22T14:48:12.698Z,17.75
2022-10-22T14:50:17.625Z,17.72
2022-10-22T14:52:20.758Z,17.72
2022-10-22T14:54:23.856Z,17.78
2022-10-22T14:56:27.078Z,17.77
2022-10-22T14:58:30.115Z,17.78
2022-10-22T15:00:34.461Z,17.68
2022-10-22T15:02:37.459Z,17.69
2022-10-22T15:04:40.425Z,17.73
2022-10-22T15:06:47.079Z,17.67
2022-10-22T15:08:50.004Z,17.63
2022-10-22T15:10:59.890Z,17.61
2022-10-22T15:13:02.845Z,17.65
2022-10-22T15:15:06.805Z,17.63
2022-10-22T15:17:09.747Z,17.57
2022-10-22T15:19:12.934Z,17.61
2022-10-22T15:21:17.632Z,17.58
2022-10-22T15:23:21.931Z,17.49
2022-10-22T15:25:25.076Z,17.41
2022-10-22T15:27:27.982Z,17.46
2022-10-22T15:29:31.401Z,17.40
2022-10-22T15:31:48.346Z,17.42
2022-10-22T15:33:51.687Z,17.44
2022-10-22T15:35:54.887Z,17.46
2022-10-22T15:38:00.149Z,17.40
2022-10-22T15:40:05.138Z,17.43
2022-10-22T15:42:08.231Z,17.38
2022-10-22T15:44:16.101Z,17.43
2022-10-22T15:46:20.377Z,17.45
2022-10-22T15:48:23.512Z,17.42
2022-10-22T15:50:26.483Z,17.42
2022-10-22T15:52:29.392Z,17.44
2022-10-22T15:54:32.890Z,17.40
2022-10-22T15:56:37.199Z,17.36
2022-10-22T15:58:40.144Z,17.31
2022-10-22T16:00:43.127Z,17.29
2022-10-22T16:02:46.181Z,17.30
2022-10-22T16:04:49.068Z,17.29
2022-10-22T16:06:56.024Z,17.24
2022-10-22T16:09:00.867Z,17.30
2022-10-22T16:11:03.894Z,17.31
2022-10-22T16:13:08.154Z,17.31
2022-10-22T16:15:11.785Z,17.17
2022-10-22T16:17:14.672Z,17.18
2022-10-22T16:19:19.117Z,17.15
2022-10-22T16:21:22.939Z,17.10
2022-10-22T16:23:25.851Z,17.08
2022-10-22T16:25:29.195Z,17.02
2022-10-22T16:27:32.082Z,16.94
2022-10-22T16:29:38.342Z,16.89
2022-10-22T16:31:43.569Z,16.86
2022-10-22T16:33:49.983Z,16.76
2022-10-22T16:35:53.607Z,16.74
2022-10-22T16:37:56.486Z,16.70
2022-10-22T16:40:01.009Z,16.62
2022-10-22T16:42:05.939Z,16.49
2022-10-22T16:44:09.137Z,16.42
2022-10-22T16:46:13.693Z,16.35
2022-10-22T16:48:16.762Z,16.28
2022-10-22T16:50:19.715Z,16.21
2022-10-22T16:52:22.655Z,16.17
2022-10-22T16:54:25.545Z,16.16
2022-10-22T16:56:29.080Z,16.13
2022-10-22T16:58:32.257Z,16.10
2022-10-22T17:00:35.565Z,16.06
2022-10-22T17:02:40.406Z,15.97
2022-10-22T17:04:54.614Z,15.95
2022-10-22T17:06:57.510Z,15.89
2022-10-22T17:09:00.523Z,15.81
2022-10-22T17:11:07.176Z,15.74
2022-10-22T17:13:10.032Z,15.69
2022-10-22T17:15:13.000Z,15.65
2022-10-22T17:17:15.875Z,15.58
2022-10-22T17:19:20.834Z,15.52
2022-10-22T17:21:24.568Z,15.43
2022-10-22T17:23:28.500Z,15.39
2022-10-22T17:25:37.870Z,15.34
2022-10-22T17:27:41.547Z,15.22
2022-10-22T17:29:44.615Z,15.20
2022-10-22T17:31:47.543Z,15.12
2022-10-22T17:33:51.427Z,15.09
2022-10-22T17:36:04.059Z,15.05
2022-10-22T17:38:07.496Z,14.96
2022-10-22T17:40:11.261Z,14.96
2022-10-22T17:42:14.270Z,14.94
2022-10-22T17:44:19.677Z,14.86
2022-10-22T17:46:23.786Z,14.78
2022-10-22T17:48:26.690Z,14.79
2022-10-22T17:50:29.618Z,14.77
2022-10-22T17:52:33.897Z,14.66
2022-10-22T17:54:37.175Z,14.55
2022-10-22T17:56:40.749Z,14.55
2022-10-22T17:58:44.084Z,14.62
2022-10-22T18:00:47.015Z,14.69
2022-10-22T18:02:50.219Z,14.74
2022-10-22T18:04:53.555Z,14.77
2022-10-22T18:06:57.464Z,14.82
2022-10-22T18:09:04.917Z,14.79
2022-10-22T18:11:08.731Z,14.88
2022-10-22T18:13:12.593Z,14.92
2022-10-22T18:15:15.588Z,14.93
2022-10-22T18:17:19.393Z,14.94
2022-10-22T18:19:24.536Z,14.98
2022-10-22T18:21:29.599Z,14.96
2022-10-22T18:23:33.346Z,14.94
2022-10-22T18:25:39.834Z,14.98
2022-10-22T18:27:43.111Z,14.99
2022-10-22T18:29:49.131Z,14.98
2022-10-22T18:31:52.497Z,14.94
2022-10-22T18:33:56.194Z,14.92
2022-10-22T18:36:07.223Z,14.97
2022-10-22T18:38:10.441Z,14.99
2022-10-22T18:40:14.753Z,15.05
2022-10-22T18:42:19.345Z,15.07
2022-10-22T18:44:23.784Z,15.11
2022-10-22T18:46:28.924Z,15.11
2022-10-22T18:48:31.807Z,15.11
2022-10-22T18:50:38.388Z,15.10
2022-10-22T18:52:41.567Z,15.11
2022-10-22T18:54:44.654Z,15.13
2022-10-22T18:56:47.894Z,15.14
2022-10-22T19:01:00.239Z,15.15
2022-10-22T19:03:03.958Z,15.18
2022-10-22T19:05:08.469Z,15.19
2022-10-22T19:07:15.162Z,15.20
2022-10-22T19:09:18.186Z,15.19
2022-10-22T19:11:21.101Z,15.18
2022-10-22T19:13:25.815Z,15.18
2022-10-22T19:15:30.136Z,15.12
2022-10-22T19:17:36.102Z,15.15
2022-10-22T19:19:39.072Z,15.14
2022-10-22T19:21:42.199Z,15.10
2022-10-22T19:26:01.652Z,15.02
2022-10-22T19:28:04.642Z,14.97
2022-10-22T19:30:08.594Z,14.92
2022-10-22T19:32:12.836Z,14.88
2022-10-22T19:34:15.835Z,14.84
2022-10-22T19:36:20.523Z,14.84
2022-10-22T19:38:29.591Z,14.82
2022-10-22T19:40:32.516Z,14.86
2022-10-22T19:42:35.997Z,14.86
2022-10-22T19:44:38.896Z,14.84
2022-10-22T19:46:42.750Z,14.83
2022-10-22T19:48:47.348Z,14.84
2022-10-22T19:50:50.997Z,14.86
2022-10-22T19:52:54.329Z,14.85
2022-10-22T19:54:57.249Z,14.80
2022-10-22T19:59:10.395Z,14.82
2022-10-22T20:01:15.932Z,14.81
2022-10-22T20:03:20.040Z,14.76
2022-10-22T20:05:31.386Z,14.74
2022-10-22T20:07:41.907Z,14.76
2022-10-22T20:09:45.227Z,14.74
2022-10-22T20:11:48.175Z,14.70
2022-10-22T20:13:52.467Z,14.60
2022-10-22T20:15:55.799Z,14.63
2022-10-22T20:17:58.808Z,14.58
2022-10-22T20:20:02.009Z,14.57
2022-10-22T20:22:06.345Z,14.53
2022-10-22T20:24:09.275Z,14.50
2022-10-22T20:26:12.721Z,14.47
2022-10-22T20:28:16.091Z,14.42
2022-10-22T20:30:20.128Z,14.39
2022-10-22T20:32:27.069Z,14.35
2022-10-22T20:34:30.183Z,14.33
2022-10-22T20:36:33.443Z,14.30
2022-10-22T20:38:45.109Z,14.29
2022-10-22T20:40:49.122Z,14.28
2022-10-22T20:42:52.077Z,14.25
2022-10-22T20:44:55.045Z,14.26
2022-10-22T20:49:02.894Z,14.38
2022-10-22T20:51:06.142Z,14.39
2022-10-22T20:53:10.603Z,14.39
2022-10-22T20:55:17.901Z,14.37
2022-10-22T20:57:20.903Z,14.34
2022-10-22T20:59:24.203Z,14.30
2022-10-22T21:01:28.478Z,14.22
2022-10-22T21:03:31.388Z,14.13
2022-10-22T21:05:34.679Z,14.18
2022-10-22T21:07:38.315Z,13.97
2022-10-22T21:09:41.449Z,14.03
2022-10-22T21:11:47.244Z,14.04
2022-10-22T21:13:50.232Z,14.04
2022-10-22T21:15:53.078Z,14.00
2022-10-22T21:17:56.179Z,14.00
2022-10-22T21:19:59.107Z,14.00
2022-10-22T21:22:02.035Z,14.01
2022-10-22T21:24:05.694Z,14.00
2022-10-22T21:26:09.235Z,14.06
2022-10-22T21:28:13.628Z,14.07
2022-10-22T21:30:16.599Z,14.10
2022-10-22T21:32:19.811Z,14.09
2022-10-22T21:34:22.649Z,14.09
2022-10-22T21:36:25.952Z,14.16
2022-10-22T21:38:28.821Z,14.19
2022-10-22T21:40:34.235Z,14.19
2022-10-22T21:42:37.494Z,14.19
2022-10-22T21:44:41.809Z,14.19
2022-10-22T21:46:51.974Z,14.19
2022-10-22T21:48:59.145Z,14.18
2022-10-22T21:51:07.749Z,14.22
2022-10-22T21:53:11.955Z,14.22
2022-10-22T21:55:15.183Z,14.25
2022-10-22T21:57:18.083Z,14.24
2022-10-22T21:59:20.971Z,14.26
2022-10-22T22:01:25.549Z,14.25
2022-10-22T22:03:28.575Z,14.33
2022-10-22T22:05:31.467Z,14.40
2022-10-22T22:07:34.481Z,14.47
2022-10-22T22:09:37.352Z,14.55
2022-10-22T22:11:40.492Z,14.64
2022-10-22T22:13:43.841Z,14.65
2022-10-22T22:15:46.750Z,14.77
2022-10-22T22:17:58.348Z,14.87
2022-10-22T22:20:01.245Z,14.92
2022-10-22T22:22:04.162Z,14.97
2022-10-22T22:24:08.326Z,15.03
2022-10-22T22:26:11.688Z,15.08
2022-10-22T22:28:14.625Z,15.09
2022-10-22T22:30:18.464Z,15.13
2022-10-22T22:32:21.299Z,15.12
2022-10-22T22:34:25.648Z,15.16
2022-10-22T22:36:28.805Z,15.19
2022-10-22T22:38:31.729Z,15.22
2022-10-22T22:40:34.742Z,15.22
2022-10-22T22:42:37.639Z,15.26
2022-10-22T22:44:40.507Z,15.30
2022-10-22T22:46:43.663Z,15.31
2022-10-22T22:48:49.083Z,15.37
2022-10-22T22:50:53.312Z,15.37
2022-10-22T22:52:56.313Z,15.37
2022-10-22T22:54:59.211Z,15.40
2022-10-22T22:57:03.154Z,15.43
2022-10-22T22:59:06.563Z,15.40
2022-10-22T23:01:15.542Z,15.36
2022-10-22T23:03:18.558Z,15.33
2022-10-22T23:05:22.395Z,15.36
2022-10-22T23:07:26.747Z,15.31
2022-10-22T23:09:29.954Z,15.30
2022-10-22T23:11:33.233Z,15.29
2022-10-22T23:13:36.695Z,15.25
2022-10-22T23:15:40.467Z,15.16
2022-10-22T23:17:43.687Z,15.06
2022-10-22T23:19:47.180Z,15.03
2022-10-22T23:21:51.509Z,14.99
2022-10-22T23:23:57.469Z,14.94
2022-10-22T23:26:00.400Z,14.88
2022-10-22T23:28:04.898Z,14.87
2022-10-22T23:30:09.540Z,14.86
2022-10-22T23:32:15.559Z,14.82
2022-10-22T23:34:20.506Z,14.78
2022-10-22T23:36:23.457Z,14.72
2022-10-22T23:38:26.314Z,14.65
2022-10-22T23:40:30.595Z,14.66
2022-10-22T23:42:33.549Z,14.55
2022-10-22T23:44:36.776Z,14.55
2022-10-22T23:46:39.969Z,14.53
2022-10-22T23:48:43.683Z,14.52
2022-10-22T23:50:46.878Z,14.51
2022-10-22T23:52:51.761Z,14.55
2022-10-22T23:54:54.776Z,14.56
2022-10-22T23:56:59.032Z,14.55
2022-10-22T23:59:01.950Z,14.52
